sensor_id;sensor_type;location;lat;lon;timestamp;P1;durP1;ratioP1;P2;durP2;ratioP2
1957;SDS011;979;51.076;13.748;2022-10-04T00:01:51;14.97;;;14.30;;
1957;SDS011;979;51.076;13.748;2022-10-04T00:04:24;15.77;;;14.60;;
1957;SDS011;979;51.076;13.748;2022-10-04T00:06:58;14.07;;;13.50;;
1957;SDS011;979;51.076;13.748;2022-10-04T00:09:35;14.57;;;13.80;;
1957;SDS011;979;51.076;13.748;2022-10-04T00:12:13;15.67;;;14.67;;
1957;SDS011;979;51.076;13.748;2022-10-04T00:14:50;14.70;;;13.70;;
1957;SDS011;979;51.076;13.748;2022-10-04T00:17:26;14.80;;;14.03;;
1957;SDS011;979;51.076;13.748;2022-10-04T00:19:58;15.23;;;14.43;;
1957;SDS011;979;51.076;13.748;2022-10-04T00:22:29;14.27;;;13.73;;
1957;SDS011;979;51.076;13.748;2022-10-04T00:30:44;14.50;;;13.60;;
1957;SDS011;979;51.076;13.748;2022-10-04T00:33:52;14.67;;;13.80;;
1957;SDS011;979;51.076;13.748;2022-10-04T00:36:38;14.20;;;13.60;;
1957;SDS011;979;51.076;13.748;2022-10-04T00:39:35;14.17;;;13.17;;
1957;SDS011;979;51.076;13.748;2022-10-04T00:42:28;14.30;;;13.67;;
1957;SDS011;979;51.076;13.748;2022-10-04T00:45:06;13.67;;;12.90;;
1957;SDS011;979;51.076;13.748;2022-10-04T00:48:03;16.03;;;14.63;;
1957;SDS011;979;51.076;13.748;2022-10-04T00:50:51;13.93;;;13.20;;
1957;SDS011;979;51.076;13.748;2022-10-04T00:53:25;12.93;;;12.17;;
1957;SDS011;979;51.076;13.748;2022-10-04T00:56:06;13.90;;;13.20;;
1957;SDS011;979;51.076;13.748;2022-10-04T00:58:47;13.80;;;13.20;;
1957;SDS011;979;51.076;13.748;2022-10-04T01:01:31;14.63;;;13.83;;
1957;SDS011;979;51.076;13.748;2022-10-04T01:04:03;13.90;;;13.20;;
1957;SDS011;979;51.076;13.748;2022-10-04T01:06:41;13.57;;;13.10;;
1957;SDS011;979;51.076;13.748;2022-10-04T01:09:10;13.50;;;13.00;;
1957;SDS011;979;51.076;13.748;2022-10-04T01:11:51;14.27;;;13.03;;
1957;SDS011;979;51.076;13.748;2022-10-04T01:14:28;13.70;;;13.00;;
1957;SDS011;979;51.076;13.748;2022-10-04T01:17:09;14.30;;;13.70;;
1957;SDS011;979;51.076;13.748;2022-10-04T01:19:38;14.47;;;13.60;;
1957;SDS011;979;51.076;13.748;2022-10-04T01:22:28;14.03;;;13.50;;
1957;SDS011;979;51.076;13.748;2022-10-04T01:25:00;14.10;;;13.50;;
1957;SDS011;979;51.076;13.748;2022-10-04T01:27:29;14.53;;;13.70;;
1957;SDS011;979;51.076;13.748;2022-10-04T01:30:01;14.23;;;13.70;;
1957;SDS011;979;51.076;13.748;2022-10-04T01:32:34;14.67;;;13.80;;
1957;SDS011;979;51.076;13.748;2022-10-04T01:35:09;15.60;;;14.47;;
1957;SDS011;979;51.076;13.748;2022-10-04T01:37:47;14.77;;;14.10;;
1957;SDS011;979;51.076;13.748;2022-10-04T01:40:15;13.90;;;13.20;;
1957;SDS011;979;51.076;13.748;2022-10-04T01:42:44;14.87;;;14.03;;
1957;SDS011;979;51.076;13.748;2022-10-04T01:45:17;14.63;;;13.83;;
1957;SDS011;979;51.076;13.748;2022-10-04T01:47:52;15.63;;;14.40;;
1957;SDS011;979;51.076;13.748;2022-10-04T01:50:27;14.17;;;13.50;;
1957;SDS011;979;51.076;13.748;2022-10-04T01:53:01;14.07;;;13.43;;
1957;SDS011;979;51.076;13.748;2022-10-04T01:55:38;14.47;;;13.73;;
1957;SDS011;979;51.076;13.748;2022-10-04T01:58:09;14.90;;;14.10;;
1957;SDS011;979;51.076;13.748;2022-10-04T02:00:42;15.40;;;14.40;;
1957;SDS011;979;51.076;13.748;2022-10-04T02:03:17;14.70;;;13.90;;
1957;SDS011;979;51.076;13.748;2022-10-04T02:05:56;14.40;;;13.60;;
1957;SDS011;979;51.076;13.748;2022-10-04T02:08:29;13.87;;;13.27;;
1957;SDS011;979;51.076;13.748;2022-10-04T02:11:02;13.33;;;12.87;;
1957;SDS011;979;51.076;13.748;2022-10-04T02:13:35;14.67;;;13.73;;
1957;SDS011;979;51.076;13.748;2022-10-04T02:16:07;14.10;;;13.40;;
1957;SDS011;979;51.076;13.748;2022-10-04T02:18:37;14.20;;;13.60;;
1957;SDS011;979;51.076;13.748;2022-10-04T02:21:11;14.73;;;13.83;;
1957;SDS011;979;51.076;13.748;2022-10-04T02:23:45;15.03;;;14.07;;
1957;SDS011;979;51.076;13.748;2022-10-04T02:26:16;15.70;;;14.30;;
1957;SDS011;979;51.076;13.748;2022-10-04T02:28:44;15.80;;;15.00;;
1957;SDS011;979;51.076;13.748;2022-10-04T02:31:13;15.10;;;14.50;;
1957;SDS011;979;51.076;13.748;2022-10-04T02:33:59;15.60;;;14.50;;
1957;SDS011;979;51.076;13.748;2022-10-04T02:36:27;15.23;;;14.63;;
1957;SDS011;979;51.076;13.748;2022-10-04T02:38:58;15.00;;;14.27;;
1957;SDS011;979;51.076;13.748;2022-10-04T02:41:31;15.20;;;14.50;;
1957;SDS011;979;51.076;13.748;2022-10-04T02:44:08;15.60;;;15.10;;
1957;SDS011;979;51.076;13.748;2022-10-04T02:46:43;14.90;;;14.23;;
1957;SDS011;979;51.076;13.748;2022-10-04T02:49:19;16.13;;;14.73;;
1957;SDS011;979;51.076;13.748;2022-10-04T02:51:57;15.63;;;14.37;;
1957;SDS011;979;51.076;13.748;2022-10-04T02:54:32;15.30;;;14.60;;
1957;SDS011;979;51.076;13.748;2022-10-04T02:57:11;14.40;;;13.80;;
1957;SDS011;979;51.076;13.748;2022-10-04T02:59:43;15.47;;;14.80;;
1957;SDS011;979;51.076;13.748;2022-10-04T03:02:20;15.40;;;14.47;;
1957;SDS011;979;51.076;13.748;2022-10-04T03:04:56;16.20;;;15.20;;
1957;SDS011;979;51.076;13.748;2022-10-04T03:07:26;16.50;;;15.80;;
1957;SDS011;979;51.076;13.748;2022-10-04T03:09:59;17.00;;;16.03;;
1957;SDS011;979;51.076;13.748;2022-10-04T03:12:29;16.60;;;15.80;;
1957;SDS011;979;51.076;13.748;2022-10-04T03:14:57;16.73;;;15.50;;
1957;SDS011;979;51.076;13.748;2022-10-04T03:17:26;15.10;;;14.50;;
1957;SDS011;979;51.076;13.748;2022-10-04T03:19:55;15.57;;;14.87;;
1957;SDS011;979;51.076;13.748;2022-10-04T03:22:24;15.60;;;14.83;;
1957;SDS011;979;51.076;13.748;2022-10-04T03:25:00;15.73;;;14.93;;
1957;SDS011;979;51.076;13.748;2022-10-04T03:27:30;15.33;;;14.63;;
1957;SDS011;979;51.076;13.748;2022-10-04T03:30:00;15.27;;;14.67;;
1957;SDS011;979;51.076;13.748;2022-10-04T03:32:29;16.33;;;15.33;;
1957;SDS011;979;51.076;13.748;2022-10-04T03:34:58;15.77;;;15.07;;
1957;SDS011;979;51.076;13.748;2022-10-04T03:37:30;15.93;;;15.00;;
1957;SDS011;979;51.076;13.748;2022-10-04T03:40:06;16.47;;;15.40;;
1957;SDS011;979;51.076;13.748;2022-10-04T03:42:36;16.80;;;15.97;;
1957;SDS011;979;51.076;13.748;2022-10-04T03:45:06;16.20;;;15.40;;
1957;SDS011;979;51.076;13.748;2022-10-04T03:47:39;16.63;;;15.80;;
1957;SDS011;979;51.076;13.748;2022-10-04T03:50:15;16.27;;;15.03;;
1957;SDS011;979;51.076;13.748;2022-10-04T03:52:47;15.40;;;14.60;;
1957;SDS011;979;51.076;13.748;2022-10-04T03:55:24;16.70;;;15.20;;
1957;SDS011;979;51.076;13.748;2022-10-04T03:58:00;15.50;;;14.70;;
1957;SDS011;979;51.076;13.748;2022-10-04T04:00:29;15.20;;;14.50;;
1957;SDS011;979;51.076;13.748;2022-10-04T04:02:59;16.33;;;15.20;;
1957;SDS011;979;51.076;13.748;2022-10-04T04:05:30;15.13;;;14.33;;
1957;SDS011;979;51.076;13.748;2022-10-04T04:08:05;16.60;;;15.90;;
1957;SDS011;979;51.076;13.748;2022-10-04T04:10:41;16.03;;;14.93;;
1957;SDS011;979;51.076;13.748;2022-10-04T04:13:16;15.27;;;14.67;;
1957;SDS011;979;51.076;13.748;2022-10-04T04:15:49;17.40;;;15.60;;
1957;SDS011;979;51.076;13.748;2022-10-04T04:18:21;17.27;;;16.40;;
1957;SDS011;979;51.076;13.748;2022-10-04T04:20:58;16.37;;;15.27;;
1957;SDS011;979;51.076;13.748;2022-10-04T04:23:28;16.07;;;15.00;;
1957;SDS011;979;51.076;13.748;2022-10-04T04:26:10;15.63;;;14.93;;
1957;SDS011;979;51.076;13.748;2022-10-04T04:28:42;15.00;;;14.40;;
1957;SDS011;979;51.076;13.748;2022-10-04T04:31:15;16.27;;;15.17;;
1957;SDS011;979;51.076;13.748;2022-10-04T04:33:50;15.90;;;15.10;;
1957;SDS011;979;51.076;13.748;2022-10-04T04:36:25;15.40;;;14.57;;
1957;SDS011;979;51.076;13.748;2022-10-04T04:39:05;15.30;;;14.53;;
1957;SDS011;979;51.076;13.748;2022-10-04T04:41:55;15.60;;;14.70;;
1957;SDS011;979;51.076;13.748;2022-10-04T04:44:23;15.70;;;15.00;;
1957;SDS011;979;51.076;13.748;2022-10-04T04:47:28;15.80;;;14.90;;
1957;SDS011;979;51.076;13.748;2022-10-04T04:50:03;17.47;;;15.97;;
1957;SDS011;979;51.076;13.748;2022-10-04T04:52:35;17.13;;;16.40;;
1957;SDS011;979;51.076;13.748;2022-10-04T04:55:04;17.10;;;16.00;;
1957;SDS011;979;51.076;13.748;2022-10-04T04:57:43;16.73;;;15.73;;
1957;SDS011;979;51.076;13.748;2022-10-04T05:00:16;16.63;;;15.73;;
1957;SDS011;979;51.076;13.748;2022-10-04T05:02:57;17.97;;;17.13;;
1957;SDS011;979;51.076;13.748;2022-10-04T05:05:27;16.90;;;16.10;;
1957;SDS011;979;51.076;13.748;2022-10-04T05:08:13;16.77;;;15.97;;
1957;SDS011;979;51.076;13.748;2022-10-04T05:10:46;18.00;;;16.73;;
1957;SDS011;979;51.076;13.748;2022-10-04T05:13:25;17.13;;;16.20;;
1957;SDS011;979;51.076;13.748;2022-10-04T05:16:08;18.30;;;17.10;;
1957;SDS011;979;51.076;13.748;2022-10-04T05:18:40;18.80;;;17.40;;
1957;SDS011;979;51.076;13.748;2022-10-04T05:23:53;17.47;;;16.57;;
1957;SDS011;979;51.076;13.748;2022-10-04T05:26:26;17.20;;;16.30;;
1957;SDS011;979;51.076;13.748;2022-10-04T05:29:00;17.27;;;16.33;;
1957;SDS011;979;51.076;13.748;2022-10-04T05:31:39;16.57;;;15.97;;
1957;SDS011;979;51.076;13.748;2022-10-04T05:34:16;16.97;;;16.07;;
1957;SDS011;979;51.076;13.748;2022-10-04T05:36:51;16.93;;;16.10;;
1957;SDS011;979;51.076;13.748;2022-10-04T05:39:34;18.03;;;16.70;;
1957;SDS011;979;51.076;13.748;2022-10-04T05:42:10;17.83;;;16.93;;
1957;SDS011;979;51.076;13.748;2022-10-04T08:56:49;15.43;;;14.50;;
1957;SDS011;979;51.076;13.748;2022-10-04T09:17:17;16.20;;;15.40;;
1957;SDS011;979;51.076;13.748;2022-10-04T09:19:54;16.60;;;15.70;;
1957;SDS011;979;51.076;13.748;2022-10-04T09:27:31;17.10;;;16.27;;
1957;SDS011;979;51.076;13.748;2022-10-04T09:38:33;16.67;;;15.97;;
1957;SDS011;979;51.076;13.748;2022-10-04T09:42:02;17.63;;;16.63;;
1957;SDS011;979;51.076;13.748;2022-10-04T09:59:34;15.80;;;15.00;;
1957;SDS011;979;51.076;13.748;2022-10-04T10:10:44;16.73;;;15.97;;
1957;SDS011;979;51.076;13.748;2022-10-04T10:20:09;16.60;;;15.57;;
1957;SDS011;979;51.076;13.748;2022-10-04T10:24:47;16.30;;;15.60;;
1957;SDS011;979;51.076;13.748;2022-10-04T10:35:51;16.43;;;15.73;;
1957;SDS011;979;51.076;13.748;2022-10-04T10:57:35;16.17;;;15.43;;
1957;SDS011;979;51.076;13.748;2022-10-04T11:00:49;17.40;;;16.50;;
1957;SDS011;979;51.076;13.748;2022-10-04T11:04:00;16.90;;;15.83;;
1957;SDS011;979;51.076;13.748;2022-10-04T12:16:17;17.20;;;16.37;;
1957;SDS011;979;51.076;13.748;2022-10-04T12:21:17;16.57;;;15.87;;
1957;SDS011;979;51.076;13.748;2022-10-04T12:24:07;16.60;;;16.00;;
1957;SDS011;979;51.076;13.748;2022-10-04T12:27:39;16.33;;;15.53;;
1957;SDS011;979;51.076;13.748;2022-10-04T12:45:27;16.90;;;16.20;;
1957;SDS011;979;51.076;13.748;2022-10-04T12:56:26;17.47;;;16.73;;
1957;SDS011;979;51.076;13.748;2022-10-04T13:32:48;16.97;;;16.27;;
1957;SDS011;979;51.076;13.748;2022-10-04T15:30:43;16.93;;;15.90;;
1957;SDS011;979;51.076;13.748;2022-10-04T15:33:57;15.40;;;14.87;;
1957;SDS011;979;51.076;13.748;2022-10-04T15:37:18;15.50;;;14.90;;
1957;SDS011;979;51.076;13.748;2022-10-04T15:40:24;15.03;;;14.53;;
1957;SDS011;979;51.076;13.748;2022-10-04T15:43:34;15.40;;;14.80;;
1957;SDS011;979;51.076;13.748;2022-10-04T15:46:41;15.43;;;14.93;;
1957;SDS011;979;51.076;13.748;2022-10-04T15:49:21;15.20;;;14.60;;
1957;SDS011;979;51.076;13.748;2022-10-04T16:17:31;17.07;;;16.30;;
1957;SDS011;979;51.076;13.748;2022-10-04T16:20:58;15.53;;;15.03;;
1957;SDS011;979;51.076;13.748;2022-10-04T16:37:34;19.80;;;18.60;;
1957;SDS011;979;51.076;13.748;2022-10-04T16:40:46;19.60;;;18.37;;
1957;SDS011;979;51.076;13.748;2022-10-04T16:43:57;18.73;;;17.60;;
1957;SDS011;979;51.076;13.748;2022-10-04T16:46:59;16.93;;;16.23;;
1957;SDS011;979;51.076;13.748;2022-10-04T17:12:22;20.67;;;19.20;;
1957;SDS011;979;51.076;13.748;2022-10-04T17:22:36;21.60;;;20.10;;
1957;SDS011;979;51.076;13.748;2022-10-04T17:25:51;23.07;;;21.23;;
1957;SDS011;979;51.076;13.748;2022-10-04T19:05:05;20.70;;;19.37;;
1957;SDS011;979;51.076;13.748;2022-10-04T19:08:11;21.30;;;19.97;;
1957;SDS011;979;51.076;13.748;2022-10-04T19:11:13;21.03;;;19.70;;
1957;SDS011;979;51.076;13.748;2022-10-04T19:14:35;24.00;;;22.30;;
1957;SDS011;979;51.076;13.748;2022-10-04T19:20:53;22.53;;;20.87;;
1957;SDS011;979;51.076;13.748;2022-10-04T19:24:00;21.93;;;20.43;;
1957;SDS011;979;51.076;13.748;2022-10-04T19:31:22;22.03;;;20.70;;
1957;SDS011;979;51.076;13.748;2022-10-04T19:38:04;21.70;;;20.30;;
1957;SDS011;979;51.076;13.748;2022-10-04T19:41:31;22.33;;;20.60;;
1957;SDS011;979;51.076;13.748;2022-10-04T19:48:03;21.63;;;20.13;;
1957;SDS011;979;51.076;13.748;2022-10-04T19:51:10;19.23;;;18.33;;
1957;SDS011;979;51.076;13.748;2022-10-04T19:57:49;20.87;;;19.30;;
1957;SDS011;979;51.076;13.748;2022-10-04T20:01:01;20.70;;;19.33;;
1957;SDS011;979;51.076;13.748;2022-10-04T20:04:12;20.10;;;18.70;;
1957;SDS011;979;51.076;13.748;2022-10-04T20:07:20;19.10;;;18.07;;
1957;SDS011;979;51.076;13.748;2022-10-04T20:24:02;20.97;;;19.57;;
1957;SDS011;979;51.076;13.748;2022-10-04T20:27:10;21.53;;;19.77;;
1957;SDS011;979;51.076;13.748;2022-10-04T20:30:50;20.87;;;19.57;;
1957;SDS011;979;51.076;13.748;2022-10-04T20:33:44;20.90;;;19.63;;
1957;SDS011;979;51.076;13.748;2022-10-04T20:42:44;20.33;;;19.30;;
1957;SDS011;979;51.076;13.748;2022-10-04T20:46:13;21.20;;;19.50;;
1957;SDS011;979;51.076;13.748;2022-10-04T20:49:13;20.77;;;19.57;;
1957;SDS011;979;51.076;13.748;2022-10-04T20:51:57;19.97;;;18.97;;
1957;SDS011;979;51.076;13.748;2022-10-04T20:54:50;21.20;;;19.40;;
1957;SDS011;979;51.076;13.748;2022-10-04T20:57:59;20.17;;;19.07;;
1957;SDS011;979;51.076;13.748;2022-10-04T21:00:50;20.63;;;19.43;;
1957;SDS011;979;51.076;13.748;2022-10-04T21:03:53;21.37;;;20.07;;
1957;SDS011;979;51.076;13.748;2022-10-04T21:07:18;20.73;;;19.53;;
1957;SDS011;979;51.076;13.748;2022-10-04T21:10:56;21.57;;;20.17;;
1957;SDS011;979;51.076;13.748;2022-10-04T21:17:02;25.53;;;23.70;;
1957;SDS011;979;51.076;13.748;2022-10-04T21:20:12;23.87;;;21.97;;
1957;SDS011;979;51.076;13.748;2022-10-04T21:23:32;23.63;;;21.90;;
1957;SDS011;979;51.076;13.748;2022-10-04T21:26:22;24.07;;;22.40;;
1957;SDS011;979;51.076;13.748;2022-10-04T21:29:04;22.43;;;21.03;;
1957;SDS011;979;51.076;13.748;2022-10-04T21:32:06;21.00;;;19.60;;
1957;SDS011;979;51.076;13.748;2022-10-04T21:35:06;21.17;;;19.80;;
1957;SDS011;979;51.076;13.748;2022-10-04T21:48:44;18.83;;;17.63;;
1957;SDS011;979;51.076;13.748;2022-10-04T21:51:36;19.80;;;18.50;;
1957;SDS011;979;51.076;13.748;2022-10-04T21:54:28;19.80;;;18.60;;
1957;SDS011;979;51.076;13.748;2022-10-04T21:57:01;20.57;;;19.50;;
1957;SDS011;979;51.076;13.748;2022-10-04T21:59:52;20.77;;;19.57;;
1957;SDS011;979;51.076;13.748;2022-10-04T22:02:54;21.27;;;19.97;;
1957;SDS011;979;51.076;13.748;2022-10-04T22:05:49;21.17;;;19.43;;
1957;SDS011;979;51.076;13.748;2022-10-04T22:08:25;20.90;;;19.80;;
1957;SDS011;979;51.076;13.748;2022-10-04T22:11:08;20.57;;;19.40;;
1957;SDS011;979;51.076;13.748;2022-10-04T22:13:49;21.47;;;20.40;;
1957;SDS011;979;51.076;13.748;2022-10-04T22:16:34;21.53;;;19.93;;
1957;SDS011;979;51.076;13.748;2022-10-04T22:19:21;20.60;;;19.50;;
1957;SDS011;979;51.076;13.748;2022-10-04T22:22:10;21.07;;;19.67;;
1957;SDS011;979;51.076;13.748;2022-10-04T22:24:57;20.27;;;19.17;;
1957;SDS011;979;51.076;13.748;2022-10-04T22:27:43;20.13;;;18.87;;
1957;SDS011;979;51.076;13.748;2022-10-04T22:30:29;20.67;;;19.63;;
1957;SDS011;979;51.076;13.748;2022-10-04T22:33:33;20.13;;;18.83;;
1957;SDS011;979;51.076;13.748;2022-10-04T22:36:14;19.70;;;18.50;;
1957;SDS011;979;51.076;13.748;2022-10-04T22:39:11;20.17;;;19.17;;
1957;SDS011;979;51.076;13.748;2022-10-04T22:42:14;20.33;;;19.30;;
1957;SDS011;979;51.076;13.748;2022-10-04T22:45:01;19.97;;;18.87;;
1957;SDS011;979;51.076;13.748;2022-10-04T22:47:51;19.80;;;18.77;;
1957;SDS011;979;51.076;13.748;2022-10-04T22:50:47;20.23;;;18.50;;
1957;SDS011;979;51.076;13.748;2022-10-04T22:53:45;20.03;;;19.10;;
1957;SDS011;979;51.076;13.748;2022-10-04T22:56:36;19.20;;;18.00;;
1957;SDS011;979;51.076;13.748;2022-10-04T22:59:20;19.47;;;18.30;;
1957;SDS011;979;51.076;13.748;2022-10-04T23:02:17;20.30;;;19.10;;
1957;SDS011;979;51.076;13.748;2022-10-04T23:07:51;20.97;;;19.50;;
1957;SDS011;979;51.076;13.748;2022-10-04T23:10:37;19.80;;;18.63;;
1957;SDS011;979;51.076;13.748;2022-10-04T23:13:32;20.17;;;19.17;;
1957;SDS011;979;51.076;13.748;2022-10-04T23:16:09;20.13;;;18.90;;
1957;SDS011;979;51.076;13.748;2022-10-04T23:19:00;19.47;;;18.33;;
1957;SDS011;979;51.076;13.748;2022-10-04T23:22:07;19.43;;;18.33;;
1957;SDS011;979;51.076;13.748;2022-10-04T23:25:26;19.53;;;18.50;;
1957;SDS011;979;51.076;13.748;2022-10-04T23:28:17;19.70;;;18.70;;
1957;SDS011;979;51.076;13.748;2022-10-04T23:31:18;19.30;;;18.30;;
1957;SDS011;979;51.076;13.748;2022-10-04T23:34:15;18.90;;;17.90;;
1957;SDS011;979;51.076;13.748;2022-10-04T23:37:16;19.40;;;18.40;;
1957;SDS011;979;51.076;13.748;2022-10-04T23:40:11;19.37;;;18.47;;
1957;SDS011;979;51.076;13.748;2022-10-04T23:43:07;21.50;;;19.83;;
1957;SDS011;979;51.076;13.748;2022-10-04T23:46:04;19.97;;;18.43;;
1957;SDS011;979;51.076;13.748;2022-10-04T23:48:42;19.90;;;18.60;;
1957;SDS011;979;51.076;13.748;2022-10-04T23:51:32;20.13;;;19.00;;
1957;SDS011;979;51.076;13.748;2022-10-04T23:54:25;19.90;;;18.70;;
1957;SDS011;979;51.076;13.748;2022-10-04T23:57:08;19.90;;;18.47;;
